createdAt,value
2023-03-28T00:01:41.846Z,101784.81
2023-03-28T00:04:11.566Z,101782.59
2023-03-28T00:06:38.975Z,101792.59
2023-03-28T00:09:05.879Z,101793.69
2023-03-28T00:11:32.519Z,101798.16
2023-03-28T00:14:01.299Z,101790.13
2023-03-28T00:16:32.426Z,101794.84
2023-03-28T00:19:11.762Z,101791.81
2023-03-28T00:21:41.506Z,101791.56
2023-03-28T00:24:13.968Z,101797.66
2023-03-28T00:26:42.230Z,101792.69
2023-03-28T00:29:15.788Z,101800.47
2023-03-28T00:31:42.760Z,101800.22
2023-03-28T00:34:09.619Z,101802.16
2023-03-28T00:36:38.997Z,101802.75
2023-03-28T00:39:06.701Z,101798.31
2023-03-28T00:41:39.868Z,101799.44
2023-03-28T00:44:38.848Z,101803.84
2023-03-28T00:47:09.285Z,101801.13
2023-03-28T00:49:36.471Z,101797.25
2023-03-28T00:52:04.778Z,101791.97
2023-03-28T00:54:39.522Z,101796.97
2023-03-28T00:57:09.081Z,101802.78
2023-03-28T00:59:38.514Z,101803.41
2023-03-28T01:02:05.841Z,101798.13
2023-03-28T01:04:46.532Z,101795.66
2023-03-28T01:07:13.971Z,101800.34
2023-03-28T01:09:40.903Z,101792.31
2023-03-28T01:12:10.034Z,101796.75
2023-03-28T01:14:39.308Z,101787.34
2023-03-28T01:17:08.847Z,101791.25
2023-03-28T01:20:02.557Z,101791.81
2023-03-28T01:23:11.777Z,101795.13
2023-03-28T01:26:11.218Z,101792.09
2023-03-28T01:29:09.214Z,101791.81
2023-03-28T01:31:56.410Z,101792.41
2023-03-28T01:34:51.053Z,101782.72
2023-03-28T01:37:30.101Z,101785.75
2023-03-28T01:40:13.615Z,101786.31
2023-03-28T01:42:44.554Z,101790.75
2023-03-28T01:45:22.621Z,101786.91
2023-03-28T01:47:55.356Z,101780.53
2023-03-28T01:50:29.760Z,101787.19
2023-03-28T01:53:03.566Z,101780.00
2023-03-28T01:56:07.897Z,101768.63
2023-03-28T01:58:44.870Z,101766.97
2023-03-28T02:01:24.703Z,101768.94
2023-03-28T02:03:56.362Z,101767.28
2023-03-28T02:06:39.850Z,101754.31
2023-03-28T02:09:14.634Z,101756.78
2023-03-28T02:12:14.676Z,101758.75
2023-03-28T02:15:05.131Z,101763.16
2023-03-28T02:18:00.549Z,101755.97
2023-03-28T02:20:55.452Z,101760.66
2023-03-28T02:26:41.713Z,101748.19
2023-03-28T02:29:28.543Z,101752.09
2023-03-28T02:34:41.385Z,101748.78
2023-03-28T02:37:22.906Z,101747.69
2023-03-28T02:40:00.751Z,101757.09
2023-03-28T02:43:01.299Z,101753.81
2023-03-28T02:45:53.922Z,101754.91
2023-03-28T02:54:31.422Z,101748.88
2023-03-28T02:57:37.031Z,101751.06
2023-03-28T03:00:15.875Z,101742.75
2023-03-28T03:02:44.337Z,101750.78
2023-03-28T03:05:11.862Z,101751.59
2023-03-28T03:07:38.851Z,101740.81
2023-03-28T03:10:07.570Z,101742.53
2023-03-28T03:12:36.946Z,101747.22
2023-03-28T03:15:05.300Z,101745.56
2023-03-28T03:17:53.871Z,101751.66
2023-03-28T03:20:26.728Z,101753.59
2023-03-28T03:22:55.409Z,101750.81
2023-03-28T03:25:22.408Z,101746.13
2023-03-28T03:27:56.879Z,101750.28
2023-03-28T03:30:23.873Z,101752.78
2023-03-28T03:33:10.658Z,101751.72
2023-03-28T03:35:38.541Z,101753.09
2023-03-28T03:38:06.816Z,101751.72
2023-03-28T03:40:34.061Z,101757.25
2023-03-28T03:43:01.482Z,101753.91
2023-03-28T03:45:28.701Z,101747.56
2023-03-28T03:47:56.717Z,101748.31
2023-03-28T03:50:24.034Z,101747.75
2023-03-28T03:52:50.862Z,101743.41
2023-03-28T03:55:23.216Z,101742.88
2023-03-28T03:57:50.160Z,101738.47
2023-03-28T04:00:17.266Z,101744.56
2023-03-28T04:02:47.300Z,101752.88
2023-03-28T04:05:20.014Z,101742.06
2023-03-28T04:08:01.748Z,101744.28
2023-03-28T04:10:34.070Z,101747.31
2023-03-28T04:13:01.692Z,101740.97
2023-03-28T04:15:28.953Z,101746.25
2023-03-28T04:18:09.795Z,101750.69
2023-03-28T04:20:41.828Z,101750.13
2023-03-28T04:23:09.671Z,101746.81
2023-03-28T04:25:41.712Z,101753.44
2023-03-28T04:28:16.843Z,101743.47
2023-03-28T04:30:58.246Z,101749.28
2023-03-28T04:33:45.330Z,101749.56
2023-03-28T04:36:18.775Z,101747.38
2023-03-28T04:38:58.315Z,101740.72
2023-03-28T04:41:46.252Z,101737.69
2023-03-28T04:44:29.852Z,101741.28
2023-03-28T04:47:02.324Z,101748.50
2023-03-28T04:49:29.641Z,101751.81
2023-03-28T04:51:56.605Z,101757.88
2023-03-28T04:54:23.613Z,101752.91
2023-03-28T04:57:04.784Z,101755.69
2023-03-28T04:59:46.886Z,101755.69
2023-03-28T05:02:22.303Z,101754.88
2023-03-28T05:05:08.300Z,101750.16
2023-03-28T05:07:35.173Z,101744.66
2023-03-28T05:10:02.188Z,101747.69
2023-03-28T05:12:34.721Z,101749.09
2023-03-28T05:15:05.017Z,101746.03
2023-03-28T05:17:33.990Z,101749.06
2023-03-28T05:20:11.181Z,101755.16
2023-03-28T05:22:49.024Z,101752.66
2023-03-28T05:25:16.041Z,101760.44
2023-03-28T05:27:42.971Z,101759.88
2023-03-28T05:30:10.705Z,101765.41
2023-03-28T05:32:38.765Z,101757.66
2023-03-28T05:35:11.599Z,101761.81
2023-03-28T05:37:41.216Z,101764.56
2023-03-28T05:40:11.320Z,101764.00
2023-03-28T05:42:40.656Z,101766.22
2023-03-28T05:45:13.900Z,101761.53
2023-03-28T05:48:16.126Z,101760.69
2023-03-28T05:50:45.033Z,101766.22
2023-03-28T05:53:12.065Z,101769.25
2023-03-28T05:55:39.422Z,101765.41
2023-03-28T05:58:06.455Z,101758.22
2023-03-28T06:00:38.906Z,101764.56
2023-03-28T06:03:07.938Z,101769.81
2023-03-28T06:05:38.637Z,101758.22
2023-03-28T06:08:15.592Z,101767.34
2023-03-28T06:10:43.290Z,101758.50
2023-03-28T06:13:19.939Z,101761.81
2023-03-28T06:15:48.119Z,101767.59
2023-03-28T06:18:16.234Z,101764.53
2023-03-28T06:20:45.792Z,101762.31
2023-03-28T06:23:12.733Z,101758.41
2023-03-28T06:25:39.485Z,101761.72
2023-03-28T06:28:07.043Z,101765.59
2023-03-28T06:30:47.214Z,101764.78
2023-03-28T06:33:14.110Z,101765.63
2023-03-28T06:35:42.683Z,101776.66
2023-03-28T06:38:09.468Z,101770.59
2023-03-28T06:40:37.343Z,101768.91
2023-03-28T06:43:04.035Z,101772.19
2023-03-28T06:45:41.188Z,101766.63
2023-03-28T06:48:12.171Z,101776.00
2023-03-28T06:51:03.696Z,101774.59
2023-03-28T06:53:31.036Z,101766.56
2023-03-28T06:55:59.683Z,101767.63
2023-03-28T06:58:27.076Z,101772.28
2023-03-28T07:01:03.484Z,101775.31
2023-03-28T07:03:36.474Z,101776.94
2023-03-28T07:06:06.857Z,101777.41
2023-03-28T07:08:34.470Z,101776.25
2023-03-28T07:11:01.526Z,101777.31
2023-03-28T07:13:31.778Z,101791.91
2023-03-28T07:16:12.117Z,101786.03
2023-03-28T07:18:39.155Z,101794.31
2023-03-28T07:21:09.836Z,101796.16
2023-03-28T07:23:36.957Z,101800.31
2023-03-28T07:26:03.663Z,101806.34
2023-03-28T07:28:31.001Z,101805.19
2023-03-28T07:30:58.033Z,101811.81
2023-03-28T07:33:34.213Z,101817.28
2023-03-28T07:36:15.670Z,101815.53
2023-03-28T07:38:48.408Z,101810.56
2023-03-28T07:41:17.228Z,101816.59
2023-03-28T07:43:44.218Z,101821.56
2023-03-28T07:46:14.463Z,101812.66
2023-03-28T07:48:42.814Z,101812.09
2023-03-28T07:51:10.638Z,101808.16
2023-03-28T07:53:38.415Z,101810.34
2023-03-28T07:56:12.203Z,101807.56
2023-03-28T07:58:57.477Z,101810.28
2023-03-28T08:01:25.021Z,101816.78
2023-03-28T08:03:56.815Z,101819.16
2023-03-28T08:06:34.256Z,101818.94
2023-03-28T08:09:02.761Z,101821.19
2023-03-28T08:11:35.482Z,101823.94
2023-03-28T08:14:03.787Z,101821.75
2023-03-28T08:16:31.660Z,101824.84
2023-03-28T08:19:10.081Z,101818.47
2023-03-28T08:21:47.323Z,101813.50
2023-03-28T08:24:19.514Z,101818.47
2023-03-28T08:26:58.555Z,101821.19
2023-03-28T08:29:25.487Z,101820.97
2023-03-28T08:31:52.508Z,101824.59
2023-03-28T08:34:19.361Z,101812.66
2023-03-28T08:36:47.429Z,101809.38
2023-03-28T08:39:27.204Z,101804.06
2023-03-28T08:42:20.341Z,101805.09
2023-03-28T08:45:08.851Z,101809.03
2023-03-28T08:48:05.359Z,101803.22
2023-03-28T08:50:45.214Z,101802.91
2023-03-28T08:53:24.312Z,101807.84
2023-03-28T08:55:53.548Z,101803.59
2023-03-28T08:58:23.579Z,101799.91
2023-03-28T09:00:52.095Z,101798.31
2023-03-28T09:03:21.842Z,101795.59
2023-03-28T09:05:57.122Z,101793.41
2023-03-28T09:08:32.745Z,101789.97
2023-03-28T09:11:14.201Z,101793.59
2023-03-28T09:13:49.988Z,101788.94
2023-03-28T09:16:44.576Z,101787.19
2023-03-28T09:19:37.057Z,101774.75
2023-03-28T09:22:47.081Z,101763.00
2023-03-28T09:25:32.278Z,101764.94
2023-03-28T09:28:13.185Z,101761.59
2023-03-28T09:30:48.562Z,101761.03
2023-03-28T09:33:21.391Z,101757.13
2023-03-28T09:35:50.427Z,101752.66
2023-03-28T09:38:40.036Z,101755.94
2023-03-28T09:41:16.590Z,101755.34
2023-03-28T09:43:53.263Z,101768.06
2023-03-28T09:46:57.561Z,101753.56
2023-03-28T09:49:35.158Z,101752.38
2023-03-28T09:52:24.626Z,101752.81
2023-03-28T09:54:52.470Z,101748.31
2023-03-28T09:57:21.766Z,101748.25
2023-03-28T09:59:58.682Z,101739.31
2023-03-28T10:02:32.607Z,101739.00
2023-03-28T10:05:33.307Z,101743.66
2023-03-28T10:08:22.533Z,101732.53
2023-03-28T10:11:19.835Z,101728.03
2023-03-28T10:13:49.957Z,101717.13
2023-03-28T10:16:37.037Z,101715.31
2023-03-28T10:19:33.428Z,101724.72
2023-03-28T10:22:26.426Z,101710.31
2023-03-28T10:24:55.344Z,101710.75
2023-03-28T10:27:27.806Z,101713.84
2023-03-28T10:29:58.668Z,101713.38
2023-03-28T10:32:31.677Z,101703.09
2023-03-28T10:35:30.309Z,101693.03
2023-03-28T10:38:16.514Z,101695.06
2023-03-28T10:41:11.649Z,101694.16
2023-03-28T10:43:57.126Z,101682.94
2023-03-28T10:46:44.419Z,101677.34
2023-03-28T10:49:21.019Z,101677.38
2023-03-28T10:51:57.096Z,101667.69
2023-03-28T10:54:50.684Z,101668.44
2023-03-28T10:57:46.796Z,101664.63
2023-03-28T11:00:37.047Z,101663.47
2023-03-28T11:03:35.002Z,101665.91
2023-03-28T11:06:15.341Z,101661.19
2023-03-28T11:47:31.522Z,101584.91
2023-03-28T11:50:30.978Z,101584.81
2023-03-28T11:53:12.716Z,101579.56
2023-03-28T11:56:07.025Z,101563.38
2023-03-28T12:01:47.816Z,101559.16
2023-03-28T12:04:22.471Z,101561.13
2023-03-28T12:07:03.268Z,101553.94
2023-03-28T12:09:56.321Z,101545.88
2023-03-28T12:12:38.730Z,101538.88
2023-03-28T12:15:14.505Z,101546.09
2023-03-28T12:17:59.670Z,101542.69
2023-03-28T12:20:33.942Z,101529.91
2023-03-28T12:23:24.090Z,101530.94
2023-03-28T12:26:21.479Z,101523.94
2023-03-28T12:28:53.849Z,101522.00
2023-03-28T12:31:57.535Z,101512.50
2023-03-28T12:34:44.182Z,101506.94
2023-03-28T12:37:28.797Z,101503.63
2023-03-28T12:40:36.521Z,101488.81
2023-03-28T12:43:04.815Z,101491.28
2023-03-28T12:45:37.260Z,101485.72
2023-03-28T12:48:14.018Z,101481.19
2023-03-28T12:50:52.711Z,101471.69
2023-03-28T12:53:21.915Z,101475.00
2023-03-28T12:55:50.464Z,101482.09
2023-03-28T12:58:34.313Z,101484.06
2023-03-28T13:01:43.013Z,101470.44
2023-03-28T13:11:14.859Z,101460.72
2023-03-28T13:13:50.691Z,101450.13
2023-03-28T13:16:42.900Z,101450.63
2023-03-28T13:19:12.092Z,101449.38
2023-03-28T13:21:55.190Z,101435.13
2023-03-28T13:24:24.688Z,101423.56
2023-03-28T13:26:55.403Z,101423.56
2023-03-28T13:29:46.202Z,101417.88
2023-03-28T13:32:18.657Z,101416.25
2023-03-28T13:35:06.299Z,101421.69
2023-03-28T13:37:47.381Z,101418.47
2023-03-28T13:40:51.373Z,101410.91
2023-03-28T13:43:56.107Z,101408.47
2023-03-28T13:46:32.118Z,101404.22
2023-03-28T13:49:06.836Z,101398.97
2023-03-28T13:51:46.426Z,101394.53
2023-03-28T13:54:13.687Z,101394.03
2023-03-28T13:56:44.678Z,101396.50
2023-03-28T13:59:16.082Z,101387.66
2023-03-28T14:01:53.702Z,101387.94
2023-03-28T14:04:26.491Z,101391.56
2023-03-28T14:06:54.458Z,101389.94
2023-03-28T14:09:27.692Z,101385.78
2023-03-28T14:11:57.957Z,101386.41
2023-03-28T14:14:45.911Z,101386.75
2023-03-28T14:17:33.958Z,101377.56
2023-03-28T14:20:05.351Z,101375.13
2023-03-28T14:22:49.393Z,101366.25
2023-03-28T14:25:24.805Z,101365.44
2023-03-28T14:27:54.990Z,101351.81
2023-03-28T14:30:26.643Z,101351.81
2023-03-28T14:33:14.800Z,101343.97
2023-03-28T14:35:43.126Z,101343.47
2023-03-28T14:38:16.863Z,101341.53
2023-03-28T14:40:45.881Z,101327.13
2023-03-28T14:43:13.735Z,101321.34
2023-03-28T14:45:43.474Z,101321.22
2023-03-28T14:48:17.331Z,101310.41
2023-03-28T14:50:46.044Z,101316.28
2023-03-28T14:53:19.844Z,101311.84
2023-03-28T14:55:51.090Z,101296.59
2023-03-28T14:58:19.170Z,101284.47
2023-03-28T15:00:52.922Z,101276.97
2023-03-28T15:03:24.120Z,101271.88
2023-03-28T15:05:54.540Z,101266.19
2023-03-28T15:08:30.911Z,101266.31
2023-03-28T15:11:03.695Z,101259.09
2023-03-28T15:13:35.813Z,101245.34
2023-03-28T15:16:05.589Z,101243.03
2023-03-28T15:18:43.804Z,101243.22
2023-03-28T15:21:11.700Z,101245.72
2023-03-28T15:23:49.204Z,101237.47
2023-03-28T15:26:25.479Z,101235.31
2023-03-28T15:28:55.118Z,101224.84
2023-03-28T15:31:22.516Z,101229.28
2023-03-28T15:33:52.100Z,101221.41
2023-03-28T15:36:22.475Z,101223.06
2023-03-28T15:38:51.725Z,101219.78
2023-03-28T15:41:28.885Z,101216.47
2023-03-28T15:43:55.567Z,101213.06
2023-03-28T15:46:30.423Z,101209.50
2023-03-28T15:49:00.348Z,101204.72
2023-03-28T15:51:28.325Z,101200.81
2023-03-28T15:53:56.446Z,101192.94
2023-03-28T15:56:41.126Z,101196.38
2023-03-28T15:59:18.119Z,101192.78
2023-03-28T16:01:45.021Z,101186.41
2023-03-28T16:04:21.220Z,101181.31
2023-03-28T16:06:48.920Z,101181.56
2023-03-28T16:09:22.785Z,101183.56
2023-03-28T16:12:00.121Z,101179.50
2023-03-28T16:14:46.779Z,101170.41
2023-03-28T16:17:29.117Z,101159.47
2023-03-28T16:20:21.571Z,101165.06
2023-03-28T16:22:49.071Z,101159.84
2023-03-28T16:25:15.913Z,101153.41
2023-03-28T16:27:42.870Z,101147.66
2023-03-28T16:30:28.877Z,101135.56
2023-03-28T16:32:56.193Z,101130.81
2023-03-28T16:35:23.241Z,101143.25
2023-03-28T16:37:49.886Z,101157.00
2023-03-28T16:40:16.789Z,101164.38
2023-03-28T16:42:43.718Z,101155.72
2023-03-28T16:45:14.281Z,101163.56
2023-03-28T16:47:42.092Z,101152.59
2023-03-28T16:50:10.018Z,101162.09
2023-03-28T16:52:40.433Z,101161.28
2023-03-28T16:55:08.715Z,101160.00
2023-03-28T16:57:37.019Z,101160.97
2023-03-28T17:00:05.588Z,101157.69
2023-03-28T17:02:32.407Z,101159.34
2023-03-28T17:04:59.182Z,101162.13
2023-03-28T17:07:25.948Z,101163.63
2023-03-28T17:09:52.782Z,101161.97
2023-03-28T17:12:21.229Z,101163.63
2023-03-28T17:14:48.213Z,101164.47
2023-03-28T17:17:15.771Z,101163.00
2023-03-28T17:19:43.215Z,101167.13
2023-03-28T17:22:10.148Z,101167.56
2023-03-28T17:24:37.079Z,101169.22
2023-03-28T17:27:04.176Z,101161.97
2023-03-28T17:29:31.452Z,101165.09
2023-03-28T17:31:58.363Z,101171.47
2023-03-28T17:34:25.433Z,101166.72
2023-03-28T17:36:53.486Z,101184.41
2023-03-28T17:39:20.589Z,101176.72
2023-03-28T17:41:47.554Z,101184.59
2023-03-28T17:44:14.511Z,101188.69
2023-03-28T17:46:41.523Z,101184.72
2023-03-28T17:49:08.526Z,101193.75
2023-03-28T17:51:35.524Z,101193.59
2023-03-28T17:54:04.415Z,101197.50
2023-03-28T17:56:31.173Z,101195.34
2023-03-28T17:58:59.760Z,101197.97
2023-03-28T18:01:26.477Z,101191.41
2023-03-28T18:03:53.545Z,101180.28
2023-03-28T18:06:41.192Z,101188.09
2023-03-28T18:09:08.062Z,101182.53
2023-03-28T18:11:35.985Z,101176.00
2023-03-28T18:14:03.221Z,101172.03
2023-03-28T18:16:30.213Z,101182.19
2023-03-28T18:18:57.525Z,101190.69
2023-03-28T18:21:26.393Z,101190.69
2023-03-28T18:23:53.365Z,101188.41
2023-03-28T18:26:20.259Z,101179.69
2023-03-28T18:28:46.975Z,101179.19
2023-03-28T18:31:17.490Z,101175.09
2023-03-28T18:33:44.879Z,101172.66
2023-03-28T18:36:12.945Z,101174.00
2023-03-28T18:38:42.896Z,101178.91
2023-03-28T18:41:11.025Z,101178.44
2023-03-28T18:43:39.437Z,101177.59
2023-03-28T18:46:15.360Z,101170.41
2023-03-28T18:48:42.647Z,101171.56
2023-03-28T18:51:09.448Z,101180.09
2023-03-28T18:53:39.456Z,101171.94
2023-03-28T18:56:07.528Z,101166.47
2023-03-28T18:58:37.459Z,101167.50
2023-03-28T19:01:05.942Z,101154.03
2023-03-28T19:03:40.365Z,101142.59
2023-03-28T19:06:09.450Z,101156.50
2023-03-28T19:08:36.480Z,101150.13
2023-03-28T19:11:14.858Z,101140.59
2023-03-28T19:13:42.531Z,101129.78
2023-03-28T19:16:16.995Z,101126.47
2023-03-28T19:18:46.888Z,101113.69
2023-03-28T19:21:14.865Z,101113.16
2023-03-28T19:23:41.830Z,101106.38
2023-03-28T19:26:11.742Z,101107.06
2023-03-28T19:28:39.179Z,101096.56
2023-03-28T19:31:08.191Z,101082.28
2023-03-28T19:33:36.394Z,101077.94
2023-03-28T19:36:05.759Z,101078.25
2023-03-28T19:38:35.372Z,101074.59
2023-03-28T19:41:09.233Z,101071.13
2023-03-28T19:43:38.504Z,101067.34
2023-03-28T19:46:07.750Z,101073.56
2023-03-28T19:48:35.986Z,101068.31
2023-03-28T19:51:03.440Z,101064.50
2023-03-28T19:53:30.284Z,101058.44
2023-03-28T19:55:59.280Z,101055.19
2023-03-28T19:58:27.096Z,101056.31
2023-03-28T20:00:57.145Z,101055.78
2023-03-28T20:03:24.500Z,101049.72
2023-03-28T20:05:51.711Z,101038.09
2023-03-28T20:08:19.082Z,101033.16
2023-03-28T20:10:48.930Z,101026.00
2023-03-28T20:13:17.126Z,101018.78
2023-03-28T20:15:45.803Z,101024.16
2023-03-28T20:18:14.671Z,101022.34
2023-03-28T20:20:42.096Z,101026.25
2023-03-28T20:23:09.787Z,101024.09
2023-03-28T20:25:36.707Z,101018.03
2023-03-28T20:28:04.366Z,101024.22
2023-03-28T20:30:32.274Z,101026.53
2023-03-28T20:32:59.524Z,101016.03
2023-03-28T20:35:27.430Z,101016.34
2023-03-28T20:37:54.500Z,101015.84
2023-03-28T20:40:23.859Z,101015.03
2023-03-28T20:42:52.514Z,101008.47
2023-03-28T20:45:22.437Z,101012.88
2023-03-28T20:47:56.707Z,101011.25
2023-03-28T20:50:34.026Z,101006.34
2023-03-28T20:53:03.257Z,100994.69
2023-03-28T20:55:32.157Z,100985.22
2023-03-28T20:57:58.961Z,100980.66
2023-03-28T21:00:33.754Z,100979.81
2023-03-28T21:03:00.822Z,100984.84
2023-03-28T21:05:28.795Z,100979.13
2023-03-28T21:07:56.618Z,100969.47
2023-03-28T21:10:23.559Z,100959.00
2023-03-28T21:12:50.941Z,100949.34
2023-03-28T21:15:18.163Z,100934.13
2023-03-28T21:17:48.969Z,100906.88
2023-03-28T21:20:15.859Z,100913.06
2023-03-28T21:22:42.583Z,100921.19
2023-03-28T21:25:10.628Z,100928.41
2023-03-28T21:27:37.568Z,100936.53
2023-03-28T21:30:08.018Z,100944.69
2023-03-28T21:32:35.841Z,100933.06
2023-03-28T21:35:04.105Z,100926.22
2023-03-28T21:37:31.420Z,100909.56
2023-03-28T21:39:58.206Z,100919.00
2023-03-28T21:42:25.529Z,100908.72
2023-03-28T21:44:52.265Z,100910.19
2023-03-28T21:47:18.963Z,100912.44
2023-03-28T21:49:46.084Z,100902.50
2023-03-28T21:52:13.117Z,100900.34
2023-03-28T21:54:39.975Z,100908.16
2023-03-28T21:57:06.792Z,100907.00
2023-03-28T21:59:33.532Z,100915.97
2023-03-28T22:02:00.649Z,100914.34
2023-03-28T22:04:28.531Z,100911.06
2023-03-28T22:06:55.685Z,100908.28
2023-03-28T22:09:22.556Z,100914.97
2023-03-28T22:11:49.447Z,100918.06
2023-03-28T22:14:16.194Z,100917.84
2023-03-28T22:16:42.869Z,100929.47
2023-03-28T22:19:09.852Z,100917.84
2023-03-28T22:21:37.509Z,100910.69
2023-03-28T22:24:07.054Z,100907.91
2023-03-28T22:26:33.932Z,100904.94
2023-03-28T22:29:00.801Z,100894.97
2023-03-28T22:31:28.268Z,100894.19
2023-03-28T22:33:55.028Z,100888.91
2023-03-28T22:36:21.917Z,100889.25
2023-03-28T22:38:48.731Z,100892.03
2023-03-28T22:41:15.754Z,100882.88
2023-03-28T22:43:42.809Z,100889.56
2023-03-28T22:46:12.648Z,100881.53
2023-03-28T22:48:39.623Z,100887.06
2023-03-28T22:51:11.736Z,100883.78
2023-03-28T22:53:39.740Z,100878.22
2023-03-28T22:56:07.542Z,100870.53
2023-03-28T22:58:34.416Z,100871.69
2023-03-28T23:01:01.581Z,100865.59
2023-03-28T23:03:28.543Z,100862.03
2023-03-28T23:05:55.408Z,100865.59
2023-03-28T23:08:22.381Z,100855.97
2023-03-28T23:10:49.424Z,100850.75
2023-03-28T23:13:16.526Z,100849.91
2023-03-28T23:15:43.830Z,100849.09
2023-03-28T23:18:11.009Z,100849.09
2023-03-28T23:20:38.211Z,100841.94
2023-03-28T23:23:05.012Z,100845.00
2023-03-28T23:25:33.111Z,100834.72
2023-03-28T23:27:59.983Z,100833.41
2023-03-28T23:30:27.202Z,100827.03
2023-03-28T23:32:53.921Z,100825.41
2023-03-28T23:35:20.863Z,100827.34
2023-03-28T23:37:47.695Z,100824.56
2023-03-28T23:40:15.234Z,100828.78
2023-03-28T23:42:44.708Z,100830.44
2023-03-28T23:45:14.681Z,100832.09
2023-03-28T23:47:42.829Z,100819.97
2023-03-28T23:50:10.624Z,100825.53
2023-03-28T23:52:37.441Z,100812.78
2023-03-28T23:55:04.685Z,100811.16
2023-03-28T23:57:31.336Z,100803.16
2023-03-28T23:59:58.114Z,100797.59
